Time;durP1;ratioP1;P1;durP2;ratioP2;P2;SDS_P1;SDS_P2;PMS_P1;PMS_P2;Temp;Humidity;BMP_temperature;BMP_pressure;BME280_temperature;BME280_humidity;BME280_pressure;Samples;Min_cycle;Max_cycle;Signal;HPM_P1;HPM_P2
2022/01/28 00:00:27;;;;;;;20.17;19.17;;;;;;;;;;5092429;28;20703;-75
2022/01/28 00:03:00;;;;;;;19.23;18.23;;;;;;;;;;5092782;28;20268;-74
2022/01/28 00:05:26;;;;;;;20.60;19.60;;;;;;;;;;5092762;28;20190;-75
2022/01/28 00:07:54;;;;;;;21.87;20.73;;;;;;;;;;5092536;28;20687;-75
2022/01/28 00:10:22;;;;;;;22.87;21.57;;;;;;;;;;5091900;28;20193;-75
2022/01/28 00:13:09;;;;;;;21.27;20.07;;;;;;;;;;5092247;28;20671;-75
2022/01/28 00:15:42;;;;;;;19.67;18.67;;;;;;;;;;5092294;28;20600;-75
2022/01/28 00:36:26;;;;;;;19.80;18.80;;;;;;;;;;5092155;28;20548;-74
2022/01/28 00:38:06;;;;;;;20.33;19.20;;;;;;;;;;5092408;28;20723;-75
2022/01/28 00:40:33;;;;;;;19.23;18.23;;;;;;;;;;5091998;28;20198;-75
2022/01/28 00:43:02;;;;;;;20.47;19.37;;;;;;;;;;5092296;28;20280;-75
2022/01/28 00:45:28;;;;;;;20.80;19.67;;;;;;;;;;5091923;28;20198;-75
2022/01/28 00:47:55;;;;;;;20.27;19.27;;;;;;;;;;5092181;28;20221;-75
2022/01/28 00:50:22;;;;;;;20.47;19.37;;;;;;;;;;5092132;28;20719;-76
2022/01/28 00:52:48;;;;;;;19.67;18.67;;;;;;;;;;5092247;28;20193;-75
2022/01/28 00:55:15;;;;;;;19.20;18.20;;;;;;;;;;5092042;28;20225;-75
2022/01/28 00:57:42;;;;;;;21.23;19.83;;;;;;;;;;5091788;28;20686;-75
2022/01/28 01:00:11;;;;;;;19.40;18.50;;;;;;;;;;5091922;28;20226;-75
2022/01/28 01:02:38;;;;;;;19.53;18.53;;;;;;;;;;5091744;28;20233;-75
2022/01/28 01:05:05;;;;;;;20.17;19.17;;;;;;;;;;5092109;28;20267;-75
2022/01/28 01:07:32;;;;;;;19.67;18.77;;;;;;;;;;5092038;28;20331;-75
2022/01/28 01:09:59;;;;;;;19.13;18.20;;;;;;;;;;5091694;28;20190;-74
2022/01/28 01:12:27;;;;;;;20.00;19.00;;;;;;;;;;5092021;28;20229;-75
2022/01/28 01:14:54;;;;;;;19.20;18.07;;;;;;;;;;5091933;28;20190;-75
2022/01/28 01:17:30;;;;;;;20.73;19.53;;;;;;;;;;5091685;28;20236;-75
2022/01/28 01:20:12;;;;;;;19.80;18.80;;;;;;;;;;5091635;28;20194;-75
2022/01/28 01:22:40;;;;;;;19.20;18.30;;;;;;;;;;5095535;28;20190;-75
2022/01/28 01:25:16;;;;;;;19.97;18.97;;;;;;;;;;5095352;28;20285;-74
2022/01/28 01:27:45;;;;;;;19.50;18.60;;;;;;;;;;5095614;28;20247;-75
2022/01/28 01:30:14;;;;;;;20.57;19.57;;;;;;;;;;5095600;28;20194;-75
2022/01/28 01:32:42;;;;;;;20.63;19.63;;;;;;;;;;5095260;28;20205;-75
2022/01/28 01:35:09;;;;;;;19.77;18.77;;;;;;;;;;5095180;28;20243;-75
2022/01/28 01:37:36;;;;;;;21.30;20.17;;;;;;;;;;5095221;28;20251;-75
2022/01/28 01:40:03;;;;;;;20.90;19.80;;;;;;;;;;5095437;28;20270;-74
2022/01/28 01:42:37;;;;;;;19.83;18.73;;;;;;;;;;5095355;28;20233;-75
2022/01/28 01:45:48;;;;;;;20.03;19.03;;;;;;;;;;5095337;28;20190;-75
2022/01/28 01:53:44;;;;;;;20.47;19.27;;;;;;;;;;5095270;28;20231;-75
2022/01/28 01:56:10;;;;;;;23.43;21.60;;;;;;;;;;5094758;28;20282;-75
2022/01/28 01:58:37;;;;;;;20.67;19.67;;;;;;;;;;5094693;28;20624;-75
2022/01/28 02:01:04;;;;;;;20.40;19.30;;;;;;;;;;5094624;28;20241;-74
2022/01/28 02:03:32;;;;;;;19.50;18.40;;;;;;;;;;5094664;28;20290;-75
2022/01/28 02:05:59;;;;;;;20.37;19.07;;;;;;;;;;5094914;28;20198;-75
2022/01/28 02:08:26;;;;;;;18.90;17.80;;;;;;;;;;5094497;28;20257;-75
2022/01/28 02:10:57;;;;;;;20.23;18.93;;;;;;;;;;5094420;28;20650;-75
2022/01/28 02:13:24;;;;;;;19.37;18.27;;;;;;;;;;5094748;28;20185;-76
2022/01/28 02:15:50;;;;;;;19.60;18.50;;;;;;;;;;5094691;28;20247;-75
2022/01/28 02:18:17;;;;;;;18.77;17.77;;;;;;;;;;5094384;28;20233;-75
2022/01/28 02:20:48;;;;;;;19.40;18.33;;;;;;;;;;5094326;28;20664;-75
2022/01/28 02:23:15;;;;;;;19.47;18.37;;;;;;;;;;5094277;28;20190;-75
2022/01/28 02:25:42;;;;;;;19.77;18.67;;;;;;;;;;5094244;28;20197;-75
2022/01/28 02:28:12;;;;;;;19.93;18.83;;;;;;;;;;5095218;28;20272;-74
2022/01/28 02:30:38;;;;;;;19.93;18.73;;;;;;;;;;5094426;28;20198;-76
2022/01/28 02:33:11;;;;;;;20.80;19.63;;;;;;;;;;5093329;28;20198;-75
2022/01/28 02:35:39;;;;;;;20.67;19.50;;;;;;;;;;5094423;28;20186;-76
2022/01/28 02:38:07;;;;;;;19.87;18.77;;;;;;;;;;5093988;28;20194;-75
2022/01/28 02:40:34;;;;;;;19.73;18.73;;;;;;;;;;5093990;28;20194;-76
2022/01/28 02:43:14;;;;;;;21.23;19.93;;;;;;;;;;5094210;28;20285;-75
2022/01/28 02:45:42;;;;;;;19.40;18.40;;;;;;;;;;5093926;28;20190;-75
2022/01/28 02:48:16;;;;;;;20.07;19.17;;;;;;;;;;5093693;28;20572;-75
2022/01/28 02:50:49;;;;;;;21.67;20.47;;;;;;;;;;5093807;28;20624;-74
2022/01/28 02:53:23;;;;;;;21.97;20.90;;;;;;;;;;5094071;28;20197;-75
2022/01/28 02:55:57;;;;;;;20.37;19.37;;;;;;;;;;5093747;28;20277;-75
2022/01/28 02:58:25;;;;;;;23.33;22.13;;;;;;;;;;5094431;28;20194;-76
2022/01/28 03:00:52;;;;;;;21.67;20.67;;;;;;;;;;5093490;28;20233;-74
2022/01/28 03:03:22;;;;;;;23.13;22.03;;;;;;;;;;5094016;28;20190;-75
2022/01/28 03:05:49;;;;;;;22.20;21.20;;;;;;;;;;5093447;28;20557;-75
2022/01/28 03:08:17;;;;;;;22.03;21.03;;;;;;;;;;5093351;28;20198;-75
2022/01/28 03:10:57;;;;;;;26.60;24.87;;;;;;;;;;5093337;28;20600;-75
2022/01/28 03:13:34;;;;;;;23.50;22.37;;;;;;;;;;5093377;28;20629;-75
2022/01/28 03:16:10;;;;;;;23.10;22.10;;;;;;;;;;5093599;28;20189;-76
2022/01/28 03:18:48;;;;;;;21.43;20.43;;;;;;;;;;5093348;28;20211;-76
2022/01/28 03:21:41;;;;;;;22.73;21.73;;;;;;;;;;5093600;28;20288;-76
2022/01/28 03:24:11;;;;;;;22.47;21.47;;;;;;;;;;5093374;28;20181;-76
2022/01/28 03:26:38;;;;;;;23.00;21.67;;;;;;;;;;5093402;28;20205;-74
2022/01/28 03:29:05;;;;;;;18.83;17.93;;;;;;;;;;5093215;28;20225;-76
2022/01/28 03:31:31;;;;;;;19.07;17.97;;;;;;;;;;5093026;28;20225;-75
2022/01/28 03:33:58;;;;;;;20.47;19.57;;;;;;;;;;5093771;28;20204;-76
2022/01/28 03:36:25;;;;;;;19.30;18.50;;;;;;;;;;5093129;28;20642;-75
2022/01/28 03:38:51;;;;;;;21.13;20.23;;;;;;;;;;5093189;28;20263;-76
2022/01/28 03:41:19;;;;;;;21.93;21.03;;;;;;;;;;5092862;28;20230;-75
2022/01/28 03:43:47;;;;;;;24.67;23.17;;;;;;;;;;5093131;28;20190;-76
2022/01/28 03:46:13;;;;;;;20.17;19.17;;;;;;;;;;5092756;28;20202;-75
2022/01/28 03:48:40;;;;;;;22.47;21.47;;;;;;;;;;5093054;28;20675;-75
2022/01/28 03:51:07;;;;;;;20.57;19.57;;;;;;;;;;5092893;28;20751;-75
2022/01/28 03:53:34;;;;;;;20.33;19.23;;;;;;;;;;5092862;28;20661;-74
2022/01/28 03:56:01;;;;;;;20.60;19.67;;;;;;;;;;5092956;28;20240;-75
2022/01/28 03:58:29;;;;;;;20.87;19.87;;;;;;;;;;5092728;28;20579;-75
2022/01/28 04:00:57;;;;;;;21.07;20.17;;;;;;;;;;5092420;28;20229;-75
2022/01/28 04:03:46;;;;;;;21.67;20.67;;;;;;;;;;5092442;28;20197;-74
2022/01/28 04:11:49;;;;;;;21.13;20.23;;;;;;;;;;5092471;28;20311;-75
2022/01/28 04:14:30;;;;;;;23.87;21.93;;;;;;;;;;5092575;28;20244;-75
2022/01/28 04:19:41;;;;;;;22.00;20.80;;;;;;;;;;5092926;28;20347;-74
2022/01/28 04:22:08;;;;;;;21.00;20.10;;;;;;;;;;5092222;28;20667;-74
2022/01/28 04:24:34;;;;;;;20.60;19.80;;;;;;;;;;5092180;28;20196;-75
2022/01/28 04:27:01;;;;;;;21.80;20.90;;;;;;;;;;5092428;28;20342;-74
2022/01/28 04:29:29;;;;;;;22.43;21.43;;;;;;;;;;5092368;28;20312;-75
2022/01/28 04:31:56;;;;;;;20.33;19.43;;;;;;;;;;5092044;28;20194;-75
2022/01/28 04:34:23;;;;;;;21.50;20.50;;;;;;;;;;5092398;28;20221;-75
2022/01/28 04:36:59;;;;;;;21.40;20.40;;;;;;;;;;5092352;28;20197;-74
2022/01/28 04:39:33;;;;;;;20.83;19.93;;;;;;;;;;5092389;28;20182;-76
2022/01/28 04:42:08;;;;;;;21.37;20.37;;;;;;;;;;5092054;28;20575;-76
2022/01/28 04:44:46;;;;;;;20.83;19.83;;;;;;;;;;5092014;28;20663;-76
2022/01/28 04:47:18;;;;;;;20.07;19.07;;;;;;;;;;5091967;28;20247;-76
2022/01/28 04:49:56;;;;;;;21.00;19.50;;;;;;;;;;5091930;28;20766;-76
2022/01/28 04:52:57;;;;;;;21.10;20.03;;;;;;;;;;5091877;28;20258;-75
2022/01/28 04:55:42;;;;;;;20.53;19.47;;;;;;;;;;5092086;28;20204;-76
2022/01/28 04:58:25;;;;;;;19.53;18.63;;;;;;;;;;5096523;28;20181;-75
2022/01/28 05:01:06;;;;;;;19.93;18.93;;;;;;;;;;5095963;28;20691;-75
2022/01/28 05:03:47;;;;;;;19.00;18.10;;;;;;;;;;5096097;28;20572;-76
2022/01/28 05:06:43;;;;;;;20.17;19.23;;;;;;;;;;5096104;28;20190;-75
2022/01/28 05:28:20;;;;;;;24.67;23.47;;;;;;;;;;5094987;28;20567;-75
2022/01/28 05:30:47;;;;;;;22.97;21.73;;;;;;;;;;5095322;28;20221;-75
2022/01/28 05:33:15;;;;;;;25.57;23.87;;;;;;;;;;5095194;28;20233;-75
2022/01/28 05:35:42;;;;;;;28.30;26.80;;;;;;;;;;5095589;28;20246;-75
2022/01/28 05:38:09;;;;;;;27.03;25.43;;;;;;;;;;5095505;28;20683;-75
2022/01/28 05:40:35;;;;;;;25.63;24.13;;;;;;;;;;5095166;28;20288;-75
2022/01/28 05:43:02;;;;;;;25.70;24.20;;;;;;;;;;5095109;28;20672;-75
2022/01/28 05:45:29;;;;;;;26.23;24.73;;;;;;;;;;5095043;28;20228;-75
2022/01/28 05:47:58;;;;;;;22.83;21.53;;;;;;;;;;5094946;28;20659;-75
2022/01/28 05:50:26;;;;;;;18.87;17.87;;;;;;;;;;5095107;28;20235;-75
2022/01/28 05:52:52;;;;;;;20.60;19.40;;;;;;;;;;5095205;28;20243;-75
2022/01/28 05:55:19;;;;;;;19.07;17.97;;;;;;;;;;5094765;28;20198;-75
2022/01/28 05:57:46;;;;;;;20.80;19.60;;;;;;;;;;5095059;28;20198;-75
2022/01/28 06:00:14;;;;;;;20.97;19.77;;;;;;;;;;5094820;28;20236;-75
2022/01/28 06:02:41;;;;;;;22.60;21.37;;;;;;;;;;5094971;28;20660;-75
2022/01/28 06:05:08;;;;;;;23.83;22.53;;;;;;;;;;5094680;28;20246;-75
2022/01/28 06:07:41;;;;;;;26.90;25.40;;;;;;;;;;5093591;28;20281;-75
2022/01/28 06:10:08;;;;;;;26.20;24.60;;;;;;;;;;5094453;28;20638;-75
2022/01/28 06:12:39;;;;;;;29.70;27.23;;;;;;;;;;5094424;28;20285;-75
2022/01/28 06:15:06;;;;;;;31.87;29.77;;;;;;;;;;5094485;28;20660;-74
2022/01/28 06:17:33;;;;;;;29.20;27.50;;;;;;;;;;5094708;28;20221;-74
2022/01/28 06:20:00;;;;;;;32.17;29.57;;;;;;;;;;5094344;28;20672;-74
2022/01/28 06:22:26;;;;;;;33.57;31.30;;;;;;;;;;5094632;28;20237;-74
2022/01/28 06:24:54;;;;;;;32.27;30.30;;;;;;;;;;5094573;28;20194;-74
2022/01/28 06:27:22;;;;;;;31.17;29.27;;;;;;;;;;5094551;28;20274;-74
2022/01/28 06:29:49;;;;;;;28.50;26.80;;;;;;;;;;5094430;28;20324;-74
2022/01/28 06:32:16;;;;;;;27.03;25.43;;;;;;;;;;5094407;28;20276;-74
2022/01/28 06:34:43;;;;;;;28.80;27.10;;;;;;;;;;5094093;28;20229;-74
2022/01/28 06:37:10;;;;;;;28.63;26.67;;;;;;;;;;5094329;28;20255;-74
2022/01/28 06:39:36;;;;;;;24.73;23.23;;;;;;;;;;5094324;28;20281;-74
2022/01/28 06:42:05;;;;;;;27.10;24.90;;;;;;;;;;5093972;28;20201;-74
2022/01/28 06:44:32;;;;;;;26.60;25.03;;;;;;;;;;5094234;28;20276;-74
2022/01/28 06:46:58;;;;;;;28.60;27.00;;;;;;;;;;5094162;28;20236;-74
2022/01/28 06:49:25;;;;;;;26.97;25.37;;;;;;;;;;5093869;28;20663;-75
2022/01/28 06:51:52;;;;;;;28.30;26.50;;;;;;;;;;5093718;28;20656;-75
2022/01/28 06:54:18;;;;;;;29.10;26.90;;;;;;;;;;5093914;28;20225;-75
2022/01/28 06:56:45;;;;;;;29.23;27.33;;;;;;;;;;5093642;28;20194;-74
2022/01/28 06:59:13;;;;;;;33.27;30.97;;;;;;;;;;5093665;28;20587;-74
2022/01/28 07:01:40;;;;;;;34.47;32.37;;;;;;;;;;5093824;28;20289;-73
2022/01/28 07:04:07;;;;;;;33.20;31.13;;;;;;;;;;5093501;28;20284;-74
2022/01/28 07:06:33;;;;;;;31.47;29.47;;;;;;;;;;5093400;28;20194;-75
2022/01/28 07:09:00;;;;;;;30.90;28.87;;;;;;;;;;5094001;28;20223;-74
2022/01/28 07:11:27;;;;;;;33.70;31.50;;;;;;;;;;5093289;28;20227;-75
2022/01/28 07:13:53;;;;;;;33.83;31.77;;;;;;;;;;5093580;28;20229;-74
2022/01/28 07:16:21;;;;;;;38.93;36.33;;;;;;;;;;5094123;28;20193;-74
2022/01/28 07:18:48;;;;;;;38.73;36.33;;;;;;;;;;5093444;28;20219;-75
2022/01/28 07:21:15;;;;;;;40.07;37.77;;;;;;;;;;5093525;28;20202;-74
2022/01/28 07:23:42;;;;;;;40.23;37.73;;;;;;;;;;5093452;28;20229;-75
2022/01/28 07:26:08;;;;;;;37.37;35.27;;;;;;;;;;5093384;28;20202;-75
2022/01/28 07:28:36;;;;;;;36.10;34.00;;;;;;;;;;5093324;28;20202;-74
2022/01/28 07:31:02;;;;;;;42.27;38.80;;;;;;;;;;5093186;28;20313;-75
2022/01/28 07:33:31;;;;;;;36.60;34.70;;;;;;;;;;5092986;28;20700;-74
2022/01/28 07:35:57;;;;;;;40.20;37.90;;;;;;;;;;5093161;28;20194;-74
2022/01/28 07:38:24;;;;;;;40.73;38.40;;;;;;;;;;5092911;28;20236;-74
2022/01/28 07:40:51;;;;;;;38.80;36.40;;;;;;;;;;5092875;28;20193;-75
2022/01/28 07:43:17;;;;;;;39.67;37.27;;;;;;;;;;5092892;28;20675;-74
2022/01/28 07:45:44;;;;;;;39.00;36.60;;;;;;;;;;5093010;28;20225;-76
2022/01/28 07:48:11;;;;;;;39.20;36.80;;;;;;;;;;5092628;28;20251;-75
2022/01/28 07:50:39;;;;;;;39.93;37.57;;;;;;;;;;5092815;28;20320;-75
2022/01/28 07:53:07;;;;;;;36.10;33.80;;;;;;;;;;5092900;28;20202;-75
2022/01/28 07:55:34;;;;;;;37.30;35.00;;;;;;;;;;5092827;28;20198;-75
2022/01/28 07:58:01;;;;;;;38.20;35.80;;;;;;;;;;5092832;28;20225;-75
2022/01/28 08:00:28;;;;;;;39.73;37.23;;;;;;;;;;5092508;28;20261;-76
2022/01/28 08:02:55;;;;;;;39.73;36.53;;;;;;;;;;5092456;28;20205;-75
2022/01/28 08:05:22;;;;;;;36.60;34.20;;;;;;;;;;5092652;28;20193;-76
2022/01/28 08:07:51;;;;;;;38.30;35.80;;;;;;;;;;5092386;28;20690;-76
2022/01/28 08:10:17;;;;;;;39.07;36.77;;;;;;;;;;5092319;28;20676;-75
2022/01/28 08:12:45;;;;;;;40.07;37.47;;;;;;;;;;5092683;28;20193;-75
2022/01/28 08:15:12;;;;;;;37.77;35.57;;;;;;;;;;5092510;28;20197;-76
2022/01/28 08:17:39;;;;;;;38.63;36.47;;;;;;;;;;5092200;28;20232;-77
2022/01/28 08:20:06;;;;;;;39.53;37.20;;;;;;;;;;5092536;28;20204;-76
2022/01/28 08:22:33;;;;;;;42.73;40.03;;;;;;;;;;5092224;28;20229;-76
2022/01/28 08:25:01;;;;;;;44.13;40.80;;;;;;;;;;5092123;28;20190;-76
2022/01/28 08:27:28;;;;;;;40.03;37.10;;;;;;;;;;5092131;28;20751;-76
2022/01/28 08:29:55;;;;;;;37.23;34.53;;;;;;;;;;5092323;28;20202;-77
2022/01/28 08:32:21;;;;;;;41.37;38.00;;;;;;;;;;5091695;28;20189;-76
2022/01/28 08:34:48;;;;;;;38.47;35.83;;;;;;;;;;5092051;28;20225;-77
2022/01/28 08:37:15;;;;;;;33.87;31.67;;;;;;;;;;5092354;28;20263;-76
2022/01/28 08:39:41;;;;;;;33.57;31.33;;;;;;;;;;5092328;28;20229;-76
2022/01/28 08:42:10;;;;;;;31.63;29.53;;;;;;;;;;5091954;28;20671;-76
2022/01/28 08:44:36;;;;;;;35.17;32.87;;;;;;;;;;5091978;28;20267;-76
2022/01/28 08:47:03;;;;;;;40.17;37.47;;;;;;;;;;5092290;28;20189;-77
2022/01/28 08:49:30;;;;;;;28.63;27.00;;;;;;;;;;5091909;28;20189;-77
2022/01/28 08:51:58;;;;;;;33.00;30.50;;;;;;;;;;5092140;28;20229;-78
2022/01/28 08:54:24;;;;;;;28.13;26.30;;;;;;;;;;5091948;28;20197;-77
2022/01/28 08:56:51;;;;;;;32.20;29.40;;;;;;;;;;5093037;28;20267;-76
2022/01/28 08:59:19;;;;;;;28.57;26.87;;;;;;;;;;5091863;28;20225;-77
2022/01/28 09:01:46;;;;;;;33.33;31.43;;;;;;;;;;5092230;28;20269;-77
2022/01/28 09:04:12;;;;;;;31.37;29.50;;;;;;;;;;5091814;28;20280;-77
2022/01/28 09:06:39;;;;;;;31.27;29.20;;;;;;;;;;5091768;28;20193;-77
2022/01/28 09:09:06;;;;;;;27.97;26.37;;;;;;;;;;5092116;28;20190;-76
2022/01/28 09:11:45;;;;;;;28.13;26.63;;;;;;;;;;5091618;28;20271;-77
2022/01/28 09:14:12;;;;;;;31.07;29.20;;;;;;;;;;5092089;28;20196;-77
2022/01/28 09:16:41;;;;;;;32.10;30.00;;;;;;;;;;5092006;28;20222;-78
2022/01/28 09:19:08;;;;;;;30.73;29.03;;;;;;;;;;5091657;28;20667;-78
2022/01/28 09:21:34;;;;;;;38.57;30.33;;;;;;;;;;5091951;28;20285;-78
2022/01/28 09:24:01;;;;;;;28.87;27.17;;;;;;;;;;5091591;28;20240;-77
2022/01/28 09:26:28;;;;;;;29.10;27.30;;;;;;;;;;5091896;28;20193;-77
2022/01/28 09:28:55;;;;;;;30.27;28.03;;;;;;;;;;5091541;28;20765;-77
2022/01/28 09:31:21;;;;;;;28.53;26.70;;;;;;;;;;5091761;28;20322;-77
2022/01/28 09:33:49;;;;;;;26.90;25.20;;;;;;;;;;5091842;28;20289;-73
2022/01/28 09:36:16;;;;;;;29.87;27.67;;;;;;;;;;5091487;28;20277;-77
2022/01/28 09:38:43;;;;;;;27.87;25.83;;;;;;;;;;5091644;28;20727;-76
2022/01/28 09:41:10;;;;;;;32.90;30.90;;;;;;;;;;5091441;28;20233;-76
2022/01/28 09:43:36;;;;;;;34.60;32.23;;;;;;;;;;5094568;28;20193;-76
2022/01/28 09:46:04;;;;;;;34.10;31.43;;;;;;;;;;5095299;28;20194;-76
2022/01/28 09:48:31;;;;;;;31.00;29.03;;;;;;;;;;5095305;28;20688;-75
2022/01/28 09:51:00;;;;;;;28.60;27.00;;;;;;;;;;5095477;28;20695;-75
2022/01/28 09:53:27;;;;;;;28.53;26.93;;;;;;;;;;5095196;28;20229;-75
2022/01/28 09:55:53;;;;;;;31.90;30.20;;;;;;;;;;5095166;28;20193;-75
2022/01/28 09:58:20;;;;;;;30.70;29.10;;;;;;;;;;5095036;28;20200;-75
2022/01/28 10:00:47;;;;;;;30.97;29.37;;;;;;;;;;5094656;28;20772;-75
2022/01/28 10:03:14;;;;;;;33.27;31.27;;;;;;;;;;5095033;28;20240;-75
2022/01/28 10:05:42;;;;;;;31.87;30.17;;;;;;;;;;5094670;28;20732;-75
2022/01/28 10:08:12;;;;;;;31.47;29.77;;;;;;;;;;5094888;28;20229;-75
2022/01/28 10:10:50;;;;;;;34.17;31.93;;;;;;;;;;5094512;28;20226;-75
2022/01/28 10:13:20;;;;;;;35.33;33.43;;;;;;;;;;5094625;28;20534;-75
2022/01/28 10:15:54;;;;;;;32.93;31.13;;;;;;;;;;5094541;28;20217;-75
2022/01/28 10:18:21;;;;;;;29.33;27.73;;;;;;;;;;5094815;28;20198;-75
2022/01/28 10:20:47;;;;;;;33.00;31.13;;;;;;;;;;5094653;28;20201;-75
2022/01/28 10:23:16;;;;;;;27.30;25.70;;;;;;;;;;5094685;28;20242;-75
2022/01/28 10:25:43;;;;;;;30.50;28.83;;;;;;;;;;5094628;28;20641;-75
2022/01/28 10:28:11;;;;;;;31.87;29.83;;;;;;;;;;5094230;28;20208;-75
2022/01/28 10:30:38;;;;;;;30.20;28.50;;;;;;;;;;5094157;28;20225;-75
2022/01/28 10:33:15;;;;;;;40.53;37.33;;;;;;;;;;5094447;28;20194;-75
2022/01/28 10:35:52;;;;;;;30.50;28.83;;;;;;;;;;5094173;28;20648;-75
2022/01/28 10:38:29;;;;;;;29.43;27.73;;;;;;;;;;5094067;28;20244;-75
2022/01/28 10:41:06;;;;;;;29.93;28.13;;;;;;;;;;5094033;28;20287;-75
2022/01/28 10:43:33;;;;;;;30.23;28.53;;;;;;;;;;5094012;28;20731;-75
2022/01/28 10:46:04;;;;;;;31.23;28.90;;;;;;;;;;5094225;28;20247;-76
2022/01/28 10:48:31;;;;;;;28.53;27.03;;;;;;;;;;5093926;28;20277;-76
2022/01/28 10:50:58;;;;;;;31.83;30.03;;;;;;;;;;5093733;28;20718;-76
2022/01/28 10:53:27;;;;;;;36.97;34.83;;;;;;;;;;5093503;28;20201;-76
2022/01/28 10:55:57;;;;;;;35.33;32.93;;;;;;;;;;5093690;28;20225;-77
2022/01/28 10:58:25;;;;;;;32.37;30.43;;;;;;;;;;5094263;28;20231;-77
2022/01/28 11:00:55;;;;;;;35.47;32.93;;;;;;;;;;5093715;28;20225;-76
2022/01/28 11:03:26;;;;;;;32.47;30.17;;;;;;;;;;5093676;28;20200;-77
2022/01/28 11:05:56;;;;;;;29.97;28.03;;;;;;;;;;5093516;28;20653;-77
2022/01/28 11:08:25;;;;;;;30.53;28.60;;;;;;;;;;5093550;28;20202;-79
2022/01/28 11:10:53;;;;;;;28.83;27.20;;;;;;;;;;5093679;28;20198;-76
2022/01/28 11:13:22;;;;;;;28.67;26.97;;;;;;;;;;5093474;28;20285;-77
2022/01/28 11:15:49;;;;;;;29.20;27.50;;;;;;;;;;5093293;28;20305;-76
2022/01/28 11:18:16;;;;;;;30.57;28.87;;;;;;;;;;5093609;28;20286;-76
2022/01/28 11:20:45;;;;;;;29.07;27.27;;;;;;;;;;5094081;28;20281;-78
2022/01/28 11:23:18;;;;;;;28.07;26.27;;;;;;;;;;5093538;28;20197;-77
2022/01/28 11:25:49;;;;;;;27.57;25.80;;;;;;;;;;5093162;28;20190;-77
2022/01/28 11:28:16;;;;;;;27.93;26.13;;;;;;;;;;5093550;28;20281;-77
2022/01/28 11:30:48;;;;;;;28.13;26.53;;;;;;;;;;5093321;28;20190;-77
2022/01/28 11:33:15;;;;;;;26.17;24.73;;;;;;;;;;5093788;28;20567;-76
2022/01/28 11:35:54;;;;;;;27.40;25.90;;;;;;;;;;5093321;28;20194;-76
2022/01/28 11:38:39;;;;;;;28.47;26.97;;;;;;;;;;5093312;28;20250;-76
2022/01/28 11:41:10;;;;;;;30.37;27.97;;;;;;;;;;5092874;28;20572;-77
2022/01/28 11:43:45;;;;;;;29.90;28.30;;;;;;;;;;5092815;28;20198;-76
2022/01/28 11:46:17;;;;;;;27.47;25.83;;;;;;;;;;5093120;28;20190;-76
2022/01/28 11:49:17;;;;;;;29.40;27.80;;;;;;;;;;5093149;28;20243;-76
2022/01/28 11:51:43;;;;;;;27.87;26.17;;;;;;;;;;5092926;28;20305;-75
2022/01/28 11:54:11;;;;;;;26.60;25.00;;;;;;;;;;5092715;28;20247;-76
2022/01/28 11:56:38;;;;;;;26.03;24.63;;;;;;;;;;5092608;28;20286;-75
2022/01/28 11:59:07;;;;;;;26.17;24.60;;;;;;;;;;5092358;28;20281;-75
2022/01/28 12:01:52;;;;;;;27.53;25.70;;;;;;;;;;5092886;28;20205;-75
2022/01/28 12:04:39;;;;;;;28.00;26.33;;;;;;;;;;5085762;28;20198;-75
2022/01/28 12:07:07;;;;;;;31.60;29.47;;;;;;;;;;5091654;28;20233;-75
2022/01/28 12:09:34;;;;;;;33.57;30.43;;;;;;;;;;5093577;28;20202;-76
2022/01/28 12:12:01;;;;;;;31.53;29.80;;;;;;;;;;5092763;28;20236;-75
2022/01/28 12:14:43;;;;;;;33.80;31.47;;;;;;;;;;5092715;28;20614;-75
2022/01/28 12:17:24;;;;;;;25.37;23.97;;;;;;;;;;5083616;28;20229;-75
2022/01/28 12:20:10;;;;;;;31.10;29.07;;;;;;;;;;5092140;28;20224;-76
2022/01/28 12:22:37;;;;;;;30.90;28.70;;;;;;;;;;5092392;28;20673;-75
2022/01/28 12:25:03;;;;;;;27.17;25.67;;;;;;;;;;5092411;28;20659;-75
2022/01/28 12:27:34;;;;;;;27.97;26.47;;;;;;;;;;5092292;28;20671;-75
2022/01/28 12:30:13;;;;;;;30.17;28.27;;;;;;;;;;5092251;28;20763;-75
2022/01/28 12:32:40;;;;;;;29.33;27.33;;;;;;;;;;5092424;28;20270;-76
2022/01/28 12:35:09;;;;;;;28.50;26.80;;;;;;;;;;5092411;28;20243;-77
2022/01/28 12:37:48;;;;;;;27.90;26.30;;;;;;;;;;5092169;28;20200;-77
2022/01/28 12:40:24;;;;;;;28.93;27.23;;;;;;;;;;5092112;28;20192;-75
2022/01/28 12:42:52;;;;;;;27.97;26.37;;;;;;;;;;5092297;28;20196;-75
2022/01/28 12:45:20;;;;;;;30.10;28.40;;;;;;;;;;5092378;28;20281;-75
2022/01/28 12:47:47;;;;;;;28.13;26.63;;;;;;;;;;5092295;28;20194;-75
2022/01/28 12:50:16;;;;;;;26.00;24.70;;;;;;;;;;5092281;28;20190;-75
2022/01/28 12:52:46;;;;;;;27.10;25.37;;;;;;;;;;5092187;28;20229;-76
2022/01/28 12:55:13;;;;;;;26.17;24.80;;;;;;;;;;5091811;28;20193;-75
2022/01/28 12:57:42;;;;;;;28.30;25.83;;;;;;;;;;5092013;28;20229;-75
2022/01/28 13:00:09;;;;;;;27.87;26.33;;;;;;;;;;5091919;28;20240;-79
2022/01/28 13:02:36;;;;;;;28.90;27.10;;;;;;;;;;5092124;28;20277;-77
2022/01/28 13:05:13;;;;;;;26.37;24.77;;;;;;;;;;5091832;28;20189;-75
2022/01/28 13:10:27;;;;;;;24.90;23.40;;;;;;;;;;5092422;28;20185;-76
2022/01/28 13:13:02;;;;;;;22.17;20.83;;;;;;;;;;5092033;28;20221;-75
2022/01/28 13:15:29;;;;;;;21.57;20.37;;;;;;;;;;5092052;28;20186;-76
2022/01/28 13:17:56;;;;;;;24.83;22.90;;;;;;;;;;5093915;28;20277;-77
2022/01/28 13:20:24;;;;;;;24.00;22.53;;;;;;;;;;5095543;28;20289;-76
2022/01/28 13:22:53;;;;;;;24.27;22.73;;;;;;;;;;5095788;28;20247;-76
2022/01/28 13:25:21;;;;;;;24.70;22.83;;;;;;;;;;5095782;28;20190;-77
2022/01/28 13:27:51;;;;;;;23.83;22.60;;;;;;;;;;5095377;28;20190;-76
2022/01/28 13:30:19;;;;;;;24.53;23.07;;;;;;;;;;5096029;28;20258;-77
2022/01/28 13:32:49;;;;;;;21.70;20.50;;;;;;;;;;5095796;28;20306;-76
2022/01/28 13:35:16;;;;;;;24.47;23.07;;;;;;;;;;5095298;28;20659;-79
2022/01/28 13:37:44;;;;;;;21.63;20.43;;;;;;;;;;5095732;28;20217;-76
2022/01/28 13:40:13;;;;;;;27.43;25.53;;;;;;;;;;5095281;28;20254;-77
2022/01/28 13:42:55;;;;;;;24.63;23.33;;;;;;;;;;5095186;28;20194;-75
2022/01/28 13:45:28;;;;;;;25.33;23.90;;;;;;;;;;5095186;28;20577;-77
2022/01/28 13:47:55;;;;;;;27.37;25.43;;;;;;;;;;5095416;28;20627;-76
2022/01/28 13:50:25;;;;;;;23.43;22.17;;;;;;;;;;5095193;28;20658;-77
2022/01/28 13:53:07;;;;;;;25.87;24.33;;;;;;;;;;5095334;28;20316;-76
2022/01/28 13:55:37;;;;;;;22.50;21.20;;;;;;;;;;5095467;28;20189;-75
2022/01/28 13:58:04;;;;;;;25.20;23.87;;;;;;;;;;5095240;28;20209;-78
2022/01/28 14:00:38;;;;;;;23.30;21.80;;;;;;;;;;5094826;28;20774;-76
2022/01/28 14:03:05;;;;;;;22.97;21.77;;;;;;;;;;5094873;28;20233;-75
2022/01/28 14:05:49;;;;;;;24.53;22.97;;;;;;;;;;5094729;28;20671;-74
2022/01/28 14:08:16;;;;;;;24.67;23.10;;;;;;;;;;5087748;28;20229;-74
2022/01/28 14:10:44;;;;;;;21.47;20.47;;;;;;;;;;5094696;28;20236;-78
2022/01/28 14:13:20;;;;;;;25.23;23.77;;;;;;;;;;5094959;28;20278;-74
2022/01/28 14:16:01;;;;;;;22.20;21.10;;;;;;;;;;5094549;28;20643;-76
2022/01/28 14:18:27;;;;;;;23.87;22.43;;;;;;;;;;5095148;28;20208;-75
2022/01/28 14:20:54;;;;;;;22.47;21.33;;;;;;;;;;5094810;28;20198;-74
2022/01/28 14:23:21;;;;;;;23.87;22.17;;;;;;;;;;5094662;28;20189;-75
2022/01/28 14:25:49;;;;;;;22.37;21.07;;;;;;;;;;5095471;28;20644;-75
2022/01/28 14:28:37;;;;;;;21.73;20.60;;;;;;;;;;5093998;28;20232;-75
2022/01/28 14:31:09;;;;;;;21.03;19.53;;;;;;;;;;5094170;28;20645;-76
2022/01/28 14:33:36;;;;;;;21.10;19.60;;;;;;;;;;5094204;28;20304;-76
2022/01/28 14:36:02;;;;;;;19.07;18.07;;;;;;;;;;5094476;28;20200;-75
2022/01/28 14:38:29;;;;;;;21.93;20.50;;;;;;;;;;5094396;28;20637;-75
2022/01/28 14:40:57;;;;;;;22.57;21.13;;;;;;;;;;5094451;28;20277;-75
2022/01/28 14:43:24;;;;;;;19.93;18.90;;;;;;;;;;5094011;28;20228;-75
2022/01/28 14:45:50;;;;;;;20.87;19.77;;;;;;;;;;5093954;28;20731;-74
2022/01/28 14:48:21;;;;;;;22.77;20.73;;;;;;;;;;5093987;28;20691;-76
2022/01/28 14:50:48;;;;;;;20.20;19.20;;;;;;;;;;5093975;28;20664;-75
2022/01/28 14:53:14;;;;;;;20.77;19.67;;;;;;;;;;5094020;28;20225;-74
2022/01/28 14:55:43;;;;;;;19.23;18.23;;;;;;;;;;5093846;28;20194;-75
2022/01/28 14:58:11;;;;;;;18.43;17.53;;;;;;;;;;5094046;28;20193;-76
2022/01/28 15:00:37;;;;;;;19.50;18.60;;;;;;;;;;5093717;28;20291;-75
2022/01/28 15:03:05;;;;;;;21.53;20.03;;;;;;;;;;5093679;28;20197;-74
2022/01/28 15:05:35;;;;;;;20.63;19.63;;;;;;;;;;5093841;28;20225;-76
2022/01/28 15:08:07;;;;;;;21.27;20.27;;;;;;;;;;5093465;28;20292;-74
2022/01/28 15:10:34;;;;;;;22.57;21.27;;;;;;;;;;5093755;28;20641;-75
2022/01/28 15:13:00;;;;;;;22.33;21.13;;;;;;;;;;5093334;28;20232;-76
2022/01/28 15:15:29;;;;;;;20.90;19.80;;;;;;;;;;5093357;28;20193;-76
2022/01/28 15:17:55;;;;;;;20.10;19.10;;;;;;;;;;5093361;28;20284;-76
2022/01/28 15:20:24;;;;;;;19.80;18.77;;;;;;;;;;5093609;28;20302;-75
2022/01/28 15:22:50;;;;;;;19.73;18.73;;;;;;;;;;5093504;28;20276;-76